< < Back
Terminal Aerodrome Forecast


Current Version              Previous Versions:   1  2  3  4  5  6  7  8  9  

Terminal Aerodrome Forecast

002
FTUS42 KGSP 282331
TAFHKY
TAF
KHKY 282331Z 2900/2924 18003KT P6SM SCT250
     FM291600 20006KT P6SM FEW150=

Latest METAR

891
SAUS70 KWBC 290500
MTRHKY
METAR KHKY 290453Z AUTO 00000KT 10SM CLR 00/M05 A3024 RMK AO2 SLP238
T00001050 400721033


USA.gov is the U.S. government's official web portal to all federal, state and local government web resources and services.